Villa Ridge, Mississippi
Current Conditions -  °F | °C
As of 2:53 AM on Friday 19 Dec 2014 (Local Time) from KHBG Reporting Station
Overcast Overcast  
Wind Chill: 51°   Ceiling: 1900
Heat Index: 51°   Visibility: 10mi
Dew Point: 49°   Wind: 3mph
Humidity: 92%   Direction: 70°ENE
Pressure: 30.15"   Gusts: NA
Location:  31.0601°N, 89.4815°W
Report Text: KHBG 190853Z AUTO 07003KT 10SM FEW006 OVC019 11/09 A3015 RMK AO2 SLP207 T01060094 56013
Loading
Personal Weather Stations






























Interactive Weather Map New forecast layout! Learn more

10-Day Weather Forecast

Advertisements
Track Severe Weather on mobile